sensor_id;sensor_type;location;lat;lon;timestamp;pressure;altitude;pressure_sealevel;temperature;humidity
58018;BME280;43810;50.860;19.226;2022-12-24T00:01:24;97556.47;;;5.68;90.29
58018;BME280;43810;50.860;19.226;2022-12-24T00:03:50;97551.06;;;5.64;90.23
58018;BME280;43810;50.860;19.226;2022-12-24T00:06:18;97547.34;;;5.65;90.26
58018;BME280;43810;50.860;19.226;2022-12-24T00:08:44;97551.50;;;5.66;90.58
58018;BME280;43810;50.860;19.226;2022-12-24T00:11:10;97549.66;;;5.67;90.27
58018;BME280;43810;50.860;19.226;2022-12-24T00:13:36;97536.34;;;5.63;90.37
58018;BME280;43810;50.860;19.226;2022-12-24T00:16:02;97545.53;;;5.57;90.21
58018;BME280;43810;50.860;19.226;2022-12-24T00:18:28;97544.56;;;5.62;90.52
58018;BME280;43810;50.860;19.226;2022-12-24T00:20:54;97537.41;;;5.62;90.52
58018;BME280;43810;50.860;19.226;2022-12-24T00:23:20;97535.06;;;5.69;90.67
58018;BME280;43810;50.860;19.226;2022-12-24T00:25:46;97534.44;;;5.72;90.40
58018;BME280;43810;50.860;19.226;2022-12-24T00:28:13;97534.09;;;5.74;90.38
58018;BME280;43810;50.860;19.226;2022-12-24T00:30:40;97542.97;;;5.69;90.22
58018;BME280;43810;50.860;19.226;2022-12-24T00:33:07;97533.13;;;5.79;90.23
58018;BME280;43810;50.860;19.226;2022-12-24T00:35:34;97533.78;;;5.76;90.27
58018;BME280;43810;50.860;19.226;2022-12-24T00:38:00;97539.94;;;5.80;90.47
58018;BME280;43810;50.860;19.226;2022-12-24T00:40:26;97538.66;;;5.86;90.39
58018;BME280;43810;50.860;19.226;2022-12-24T00:42:51;97541.50;;;5.81;90.01
58018;BME280;43810;50.860;19.226;2022-12-24T00:45:17;97546.00;;;5.80;90.38
58018;BME280;43810;50.860;19.226;2022-12-24T00:47:43;97535.53;;;5.71;90.29
58018;BME280;43810;50.860;19.226;2022-12-24T00:50:09;97537.00;;;5.81;90.31
58018;BME280;43810;50.860;19.226;2022-12-24T00:52:35;97535.53;;;5.71;90.48
58018;BME280;43810;50.860;19.226;2022-12-24T00:55:01;97530.38;;;5.75;91.01
58018;BME280;43810;50.860;19.226;2022-12-24T00:57:27;97526.63;;;5.76;91.13
58018;BME280;43810;50.860;19.226;2022-12-24T00:59:53;97532.59;;;5.85;90.85
58018;BME280;43810;50.860;19.226;2022-12-24T01:02:18;97523.81;;;5.81;90.74
58018;BME280;43810;50.860;19.226;2022-12-24T01:04:44;97518.22;;;5.83;91.13
58018;BME280;43810;50.860;19.226;2022-12-24T01:07:29;97518.88;;;5.80;91.14
58018;BME280;43810;50.860;19.226;2022-12-24T01:09:55;97518.03;;;5.88;90.95
58018;BME280;43810;50.860;19.226;2022-12-24T01:12:20;97513.59;;;5.80;90.98
58018;BME280;43810;50.860;19.226;2022-12-24T01:14:46;97514.69;;;5.79;90.98
58018;BME280;43810;50.860;19.226;2022-12-24T01:17:12;97512.63;;;5.84;91.10
58018;BME280;43810;50.860;19.226;2022-12-24T01:19:38;97507.69;;;5.83;90.85
58018;BME280;43810;50.860;19.226;2022-12-24T01:22:04;97519.44;;;5.85;91.14
58018;BME280;43810;50.860;19.226;2022-12-24T01:24:30;97508.88;;;5.85;90.93
58018;BME280;43810;50.860;19.226;2022-12-24T01:26:55;97509.22;;;5.84;90.87
58018;BME280;43810;50.860;19.226;2022-12-24T01:29:21;97505.06;;;5.83;90.82
58018;BME280;43810;50.860;19.226;2022-12-24T01:31:47;97500.78;;;5.90;90.60
58018;BME280;43810;50.860;19.226;2022-12-24T01:34:13;97506.06;;;5.90;90.39
58018;BME280;43810;50.860;19.226;2022-12-24T01:36:38;97504.53;;;5.89;91.02
58018;BME280;43810;50.860;19.226;2022-12-24T01:39:04;97503.75;;;5.89;90.81
58018;BME280;43810;50.860;19.226;2022-12-24T01:41:31;97511.00;;;5.92;90.79
58018;BME280;43810;50.860;19.226;2022-12-24T01:46:55;97497.25;;;5.86;91.02
58018;BME280;43810;50.860;19.226;2022-12-24T01:49:24;97496.59;;;5.89;90.79
58018;BME280;43810;50.860;19.226;2022-12-24T01:51:55;97506.38;;;5.89;90.94
58018;BME280;43810;50.860;19.226;2022-12-24T01:54:31;97501.44;;;5.87;90.86
58018;BME280;43810;50.860;19.226;2022-12-24T01:57:10;97504.66;;;5.93;90.78
58018;BME280;43810;50.860;19.226;2022-12-24T01:59:43;97500.59;;;5.95;90.49
58018;BME280;43810;50.860;19.226;2022-12-24T02:02:11;97511.34;;;5.90;90.60
58018;BME280;43810;50.860;19.226;2022-12-24T02:04:45;97525.28;;;5.91;90.57
58018;BME280;43810;50.860;19.226;2022-12-24T02:07:14;97506.84;;;5.91;90.63
58018;BME280;43810;50.860;19.226;2022-12-24T02:09:41;97518.59;;;5.93;90.62
58018;BME280;43810;50.860;19.226;2022-12-24T02:12:07;97515.75;;;5.98;90.96
58018;BME280;43810;50.860;19.226;2022-12-24T02:14:33;97515.75;;;5.98;90.37
58018;BME280;43810;50.860;19.226;2022-12-24T02:31:22;97493.84;;;5.86;90.31
58018;BME280;43810;50.860;19.226;2022-12-24T02:34:04;97492.66;;;5.83;90.09
58018;BME280;43810;50.860;19.226;2022-12-24T02:36:46;97483.38;;;5.77;90.29
58018;BME280;43810;50.860;19.226;2022-12-24T02:39:18;97481.19;;;5.79;90.62
58018;BME280;43810;50.860;19.226;2022-12-24T02:41:49;97483.38;;;5.77;90.17
58018;BME280;43810;50.860;19.226;2022-12-24T02:44:33;97478.19;;;5.68;90.11
58018;BME280;43810;50.860;19.226;2022-12-24T02:47:02;97479.19;;;5.76;90.55
58018;BME280;43810;50.860;19.226;2022-12-24T02:49:29;97487.63;;;5.69;90.39
58018;BME280;43810;50.860;19.226;2022-12-24T02:51:56;97482.81;;;5.71;90.52
58018;BME280;43810;50.860;19.226;2022-12-24T02:54:21;97476.97;;;5.66;90.95
58018;BME280;43810;50.860;19.226;2022-12-24T03:05:11;97491.16;;;5.73;90.75
58018;BME280;43810;50.860;19.226;2022-12-24T03:09:00;97483.06;;;5.79;90.34
58018;BME280;43810;50.860;19.226;2022-12-24T03:10:58;97482.94;;;5.75;90.50
58018;BME280;43810;50.860;19.226;2022-12-24T03:13:27;97488.31;;;5.79;90.68
58018;BME280;43810;50.860;19.226;2022-12-24T03:15:53;97486.78;;;5.78;90.61
58018;BME280;43810;50.860;19.226;2022-12-24T03:18:22;97481.66;;;5.81;90.32
58018;BME280;43810;50.860;19.226;2022-12-24T03:20:55;97478.69;;;5.83;90.34
58018;BME280;43810;50.860;19.226;2022-12-24T03:23:23;97496.81;;;5.84;90.33
58018;BME280;43810;50.860;19.226;2022-12-24T03:25:49;97483.97;;;5.83;90.55
58018;BME280;43810;50.860;19.226;2022-12-24T03:28:17;97481.88;;;5.88;90.00
58018;BME280;43810;50.860;19.226;2022-12-24T03:30:46;97491.75;;;5.79;90.24
58018;BME280;43810;50.860;19.226;2022-12-24T03:33:13;97492.09;;;5.90;90.19
58018;BME280;43810;50.860;19.226;2022-12-24T03:35:39;97492.88;;;5.90;90.21
58018;BME280;43810;50.860;19.226;2022-12-24T03:38:05;97486.53;;;5.91;89.98
58018;BME280;43810;50.860;19.226;2022-12-24T03:40:31;97483.34;;;5.98;90.10
58018;BME280;43810;50.860;19.226;2022-12-24T03:42:57;97473.47;;;5.95;90.15
58018;BME280;43810;50.860;19.226;2022-12-24T03:45:23;97478.94;;;5.90;90.18
58018;BME280;43810;50.860;19.226;2022-12-24T03:47:49;97484.97;;;5.90;90.15
58018;BME280;43810;50.860;19.226;2022-12-24T03:50:15;97484.38;;;5.85;90.03
58018;BME280;43810;50.860;19.226;2022-12-24T03:52:41;97477.47;;;5.80;90.07
58018;BME280;43810;50.860;19.226;2022-12-24T03:55:07;97486.00;;;5.77;90.19
58018;BME280;43810;50.860;19.226;2022-12-24T03:57:33;97485.44;;;5.71;90.58
58018;BME280;43810;50.860;19.226;2022-12-24T03:59:58;97492.44;;;5.67;90.47
58018;BME280;43810;50.860;19.226;2022-12-24T04:02:24;97486.34;;;5.76;90.81
58018;BME280;43810;50.860;19.226;2022-12-24T04:04:50;97487.09;;;5.76;90.70
58018;BME280;43810;50.860;19.226;2022-12-24T04:07:16;97488.31;;;5.79;90.89
58018;BME280;43810;50.860;19.226;2022-12-24T04:09:42;97481.75;;;5.85;90.36
58018;BME280;43810;50.860;19.226;2022-12-24T04:12:08;97489.47;;;5.90;90.43
58018;BME280;43810;50.860;19.226;2022-12-24T04:14:33;97491.03;;;5.91;90.48
58018;BME280;43810;50.860;19.226;2022-12-24T04:16:59;97497.06;;;5.91;90.59
58018;BME280;43810;50.860;19.226;2022-12-24T04:19:25;97485.22;;;5.97;90.31
58018;BME280;43810;50.860;19.226;2022-12-24T04:21:51;97482.78;;;5.92;90.25
58018;BME280;43810;50.860;19.226;2022-12-24T04:24:17;97482.38;;;6.02;90.47
58018;BME280;43810;50.860;19.226;2022-12-24T04:26:43;97488.31;;;5.99;90.29
58018;BME280;43810;50.860;19.226;2022-12-24T04:29:08;97494.97;;;5.97;90.64
58018;BME280;43810;50.860;19.226;2022-12-24T04:31:34;97482.56;;;5.97;90.76
58018;BME280;43810;50.860;19.226;2022-12-24T04:34:00;97485.97;;;5.98;90.45
58018;BME280;43810;50.860;19.226;2022-12-24T04:36:26;97479.84;;;5.94;91.06
58018;BME280;43810;50.860;19.226;2022-12-24T04:38:52;97473.56;;;5.98;90.65
58018;BME280;43810;50.860;19.226;2022-12-24T04:41:20;97469.28;;;5.94;90.72
58018;BME280;43810;50.860;19.226;2022-12-24T04:43:46;97470.16;;;5.98;90.65
58018;BME280;43810;50.860;19.226;2022-12-24T04:46:22;97476.22;;;5.98;90.84
58018;BME280;43810;50.860;19.226;2022-12-24T04:48:50;97472.38;;;5.96;90.87
58018;BME280;43810;50.860;19.226;2022-12-24T04:51:17;97475.44;;;5.98;90.75
58018;BME280;43810;50.860;19.226;2022-12-24T04:53:43;97475.75;;;5.96;90.55
58018;BME280;43810;50.860;19.226;2022-12-24T04:56:17;97476.97;;;5.99;90.63
58018;BME280;43810;50.860;19.226;2022-12-24T04:58:45;97490.16;;;5.99;90.98
58018;BME280;43810;50.860;19.226;2022-12-24T05:01:13;97473.38;;;6.03;90.78
58018;BME280;43810;50.860;19.226;2022-12-24T05:03:40;97478.66;;;6.03;90.71
58018;BME280;43810;50.860;19.226;2022-12-24T05:06:08;97476.47;;;6.05;90.86
58018;BME280;43810;50.860;19.226;2022-12-24T05:08:35;97478.56;;;6.12;90.85
58018;BME280;43810;50.860;19.226;2022-12-24T05:11:02;97478.47;;;6.21;91.01
58018;BME280;43810;50.860;19.226;2022-12-24T05:13:28;97477.06;;;6.23;90.80
58018;BME280;43810;50.860;19.226;2022-12-24T05:15:54;97479.38;;;6.25;90.43
58018;BME280;43810;50.860;19.226;2022-12-24T05:18:21;97466.50;;;6.23;90.90
58018;BME280;43810;50.860;19.226;2022-12-24T05:20:48;97467.06;;;6.17;90.56
58018;BME280;43810;50.860;19.226;2022-12-24T05:23:24;97472.56;;;6.24;91.30
58018;BME280;43810;50.860;19.226;2022-12-24T05:26:26;97466.84;;;6.22;90.96
58018;BME280;43810;50.860;19.226;2022-12-24T05:28:55;97477.69;;;6.20;90.69
58018;BME280;43810;50.860;19.226;2022-12-24T05:31:23;97471.47;;;6.25;90.74
58018;BME280;43810;50.860;19.226;2022-12-24T05:33:50;97486.31;;;6.29;90.38
58018;BME280;43810;50.860;19.226;2022-12-24T05:36:16;97482.59;;;6.30;90.72
58018;BME280;43810;50.860;19.226;2022-12-24T05:38:42;97484.22;;;6.35;90.48
58018;BME280;43810;50.860;19.226;2022-12-24T05:41:08;97485.13;;;6.39;90.51
58018;BME280;43810;50.860;19.226;2022-12-24T05:43:35;97491.19;;;6.39;90.52
58018;BME280;43810;50.860;19.226;2022-12-24T05:46:04;97493.72;;;6.48;90.42
58018;BME280;43810;50.860;19.226;2022-12-24T05:48:30;97500.84;;;6.47;90.28
58018;BME280;43810;50.860;19.226;2022-12-24T05:50:56;97507.88;;;6.43;90.82
58018;BME280;43810;50.860;19.226;2022-12-24T05:53:22;97493.41;;;6.50;90.58
58018;BME280;43810;50.860;19.226;2022-12-24T05:55:48;97491.53;;;6.50;90.65
58018;BME280;43810;50.860;19.226;2022-12-24T05:58:14;97499.13;;;6.52;90.41
58018;BME280;43810;50.860;19.226;2022-12-24T06:00:40;97495.59;;;6.60;89.99
58018;BME280;43810;50.860;19.226;2022-12-24T06:03:06;97490.19;;;6.56;90.48
58018;BME280;43810;50.860;19.226;2022-12-24T06:05:32;97495.47;;;6.56;90.62
58018;BME280;43810;50.860;19.226;2022-12-24T06:07:58;97508.22;;;6.54;90.74
58018;BME280;43810;50.860;19.226;2022-12-24T06:10:24;97499.22;;;6.55;90.46
58018;BME280;43810;50.860;19.226;2022-12-24T06:12:50;97499.56;;;6.54;90.58
58018;BME280;43810;50.860;19.226;2022-12-24T06:15:16;97497.25;;;6.52;90.15
58018;BME280;43810;50.860;19.226;2022-12-24T06:17:41;97501.97;;;6.59;90.52
58018;BME280;43810;50.860;19.226;2022-12-24T06:20:07;97516.72;;;6.60;90.24
58018;BME280;43810;50.860;19.226;2022-12-24T06:22:33;97503.53;;;6.60;90.42
58018;BME280;43810;50.860;19.226;2022-12-24T06:24:59;97518.25;;;6.61;89.91
58018;BME280;43810;50.860;19.226;2022-12-24T06:27:25;97519.56;;;6.67;90.05
58018;BME280;43810;50.860;19.226;2022-12-24T06:29:51;97521.44;;;6.66;90.33
58018;BME280;43810;50.860;19.226;2022-12-24T06:32:19;97524.09;;;6.66;89.97
58018;BME280;43810;50.860;19.226;2022-12-24T06:34:45;97533.88;;;6.78;89.59
58018;BME280;43810;50.860;19.226;2022-12-24T06:37:11;97531.94;;;6.87;89.13
58018;BME280;43810;50.860;19.226;2022-12-24T06:39:44;97528.66;;;6.90;89.31
58018;BME280;43810;50.860;19.226;2022-12-24T06:42:12;97528.44;;;6.95;89.25
58018;BME280;43810;50.860;19.226;2022-12-24T06:44:38;97530.66;;;7.05;89.03
58018;BME280;43810;50.860;19.226;2022-12-24T06:47:04;97529.00;;;7.13;88.66
58018;BME280;43810;50.860;19.226;2022-12-24T06:49:30;97530.53;;;7.14;89.20
58018;BME280;43810;50.860;19.226;2022-12-24T06:51:57;97535.94;;;7.17;89.95
58018;BME280;43810;50.860;19.226;2022-12-24T06:54:23;97535.50;;;7.15;90.15
58018;BME280;43810;50.860;19.226;2022-12-24T06:56:50;97534.50;;;7.20;90.53
58018;BME280;43810;50.860;19.226;2022-12-24T06:59:16;97544.75;;;7.22;90.25
58018;BME280;43810;50.860;19.226;2022-12-24T07:01:42;97539.03;;;7.20;90.62
58018;BME280;43810;50.860;19.226;2022-12-24T07:04:07;97545.28;;;7.27;90.46
58018;BME280;43810;50.860;19.226;2022-12-24T07:06:33;97543.63;;;7.35;90.48
58018;BME280;43810;50.860;19.226;2022-12-24T07:08:59;97548.50;;;7.33;90.34
58018;BME280;43810;50.860;19.226;2022-12-24T07:11:26;97545.06;;;7.44;90.02
58018;BME280;43810;50.860;19.226;2022-12-24T07:13:52;97547.16;;;7.39;89.83
58018;BME280;43810;50.860;19.226;2022-12-24T07:16:18;97549.56;;;7.44;90.02
58018;BME280;43810;50.860;19.226;2022-12-24T07:18:44;97555.41;;;7.49;89.95
58018;BME280;43810;50.860;19.226;2022-12-24T07:21:11;97558.59;;;7.55;89.68
58018;BME280;43810;50.860;19.226;2022-12-24T07:23:36;97563.19;;;7.58;89.55
58018;BME280;43810;50.860;19.226;2022-12-24T07:26:04;97555.25;;;7.58;89.73
58018;BME280;43810;50.860;19.226;2022-12-24T07:28:30;97567.81;;;7.61;89.70
58018;BME280;43810;50.860;19.226;2022-12-24T07:30:57;97572.91;;;7.66;89.80
58018;BME280;43810;50.860;19.226;2022-12-24T07:33:24;97572.91;;;7.66;90.15
58018;BME280;43810;50.860;19.226;2022-12-24T07:36:04;97578.97;;;7.67;90.20
58018;BME280;43810;50.860;19.226;2022-12-24T07:38:31;97585.22;;;7.74;90.40
58018;BME280;43810;50.860;19.226;2022-12-24T07:40:58;97587.53;;;7.76;90.22
58018;BME280;43810;50.860;19.226;2022-12-24T07:43:25;97586.53;;;7.80;90.25
58018;BME280;43810;50.860;19.226;2022-12-24T07:45:56;97581.59;;;7.79;90.29
58018;BME280;43810;50.860;19.226;2022-12-24T07:48:23;97583.66;;;7.85;90.29
58018;BME280;43810;50.860;19.226;2022-12-24T07:50:50;97592.25;;;7.82;90.17
58018;BME280;43810;50.860;19.226;2022-12-24T07:53:16;97593.91;;;7.87;90.39
58018;BME280;43810;50.860;19.226;2022-12-24T07:55:43;97594.66;;;7.87;90.38
58018;BME280;43810;50.860;19.226;2022-12-24T07:58:09;97595.44;;;7.88;90.29
58018;BME280;43810;50.860;19.226;2022-12-24T08:00:36;97604.59;;;7.90;90.17
58018;BME280;43810;50.860;19.226;2022-12-24T08:03:03;97605.25;;;7.87;90.36
58018;BME280;43810;50.860;19.226;2022-12-24T08:05:35;97607.88;;;7.87;90.32
58018;BME280;43810;50.860;19.226;2022-12-24T08:08:05;97600.63;;;7.84;90.47
58018;BME280;43810;50.860;19.226;2022-12-24T08:10:31;97600.06;;;7.91;90.37
58018;BME280;43810;50.860;19.226;2022-12-24T08:12:57;97612.84;;;7.89;90.59
58018;BME280;43810;50.860;19.226;2022-12-24T08:15:23;97616.59;;;7.88;90.69
58018;BME280;43810;50.860;19.226;2022-12-24T08:17:49;97618.47;;;7.87;90.84
58018;BME280;43810;50.860;19.226;2022-12-24T08:20:15;97625.31;;;7.88;90.75
58018;BME280;43810;50.860;19.226;2022-12-24T08:22:42;97622.66;;;7.88;90.78
58018;BME280;43810;50.860;19.226;2022-12-24T08:25:08;97633.34;;;7.92;90.51
58018;BME280;43810;50.860;19.226;2022-12-24T08:27:37;97636.72;;;7.93;90.73
58018;BME280;43810;50.860;19.226;2022-12-24T08:30:06;97636.84;;;7.96;90.82
58018;BME280;43810;50.860;19.226;2022-12-24T08:32:32;97643.25;;;7.95;90.86
58018;BME280;43810;50.860;19.226;2022-12-24T08:34:59;97641.59;;;8.03;90.85
58018;BME280;43810;50.860;19.226;2022-12-24T08:37:25;97648.63;;;8.11;90.64
58018;BME280;43810;50.860;19.226;2022-12-24T08:39:51;97645.72;;;8.16;90.36
58018;BME280;43810;50.860;19.226;2022-12-24T08:42:16;97650.59;;;8.14;90.52
58018;BME280;43810;50.860;19.226;2022-12-24T08:44:42;97661.28;;;8.05;90.47
58018;BME280;43810;50.860;19.226;2022-12-24T08:47:08;97666.16;;;8.03;90.78
58018;BME280;43810;50.860;19.226;2022-12-24T08:49:34;97662.84;;;8.06;90.79
58018;BME280;43810;50.860;19.226;2022-12-24T08:51:59;97670.00;;;8.06;90.60
58018;BME280;43810;50.860;19.226;2022-12-24T08:54:26;97667.34;;;8.06;90.85
58018;BME280;43810;50.860;19.226;2022-12-24T08:56:51;97675.84;;;8.11;90.80
58018;BME280;43810;50.860;19.226;2022-12-24T08:59:17;97674.19;;;8.07;90.76
58018;BME280;43810;50.860;19.226;2022-12-24T09:01:43;97678.06;;;8.09;90.88
58018;BME280;43810;50.860;19.226;2022-12-24T09:04:09;97678.50;;;8.11;90.50
58018;BME280;43810;50.860;19.226;2022-12-24T09:06:35;97674.19;;;8.07;90.49
58018;BME280;43810;50.860;19.226;2022-12-24T09:09:03;97690.31;;;8.02;90.44
58018;BME280;43810;50.860;19.226;2022-12-24T09:11:29;97693.16;;;7.97;90.57
58018;BME280;43810;50.860;19.226;2022-12-24T09:13:55;97700.00;;;7.98;90.86
58018;BME280;43810;50.860;19.226;2022-12-24T09:16:21;97695.38;;;7.95;90.75
58018;BME280;43810;50.860;19.226;2022-12-24T09:18:47;97699.47;;;7.92;90.86
58018;BME280;43810;50.860;19.226;2022-12-24T09:21:16;97699.09;;;7.94;90.93
58018;BME280;43810;50.860;19.226;2022-12-24T09:23:45;97701.44;;;7.95;90.89
58018;BME280;43810;50.860;19.226;2022-12-24T09:26:23;97710.56;;;7.98;90.67
58018;BME280;43810;50.860;19.226;2022-12-24T09:28:50;97696.25;;;7.99;90.77
58018;BME280;43810;50.860;19.226;2022-12-24T09:31:16;97702.19;;;7.96;90.86
58018;BME280;43810;50.860;19.226;2022-12-24T09:33:43;97701.88;;;7.97;90.99
58018;BME280;43810;50.860;19.226;2022-12-24T09:36:09;97705.28;;;7.98;91.08
58018;BME280;43810;50.860;19.226;2022-12-24T09:38:36;97714.44;;;8.00;91.01
58018;BME280;43810;50.860;19.226;2022-12-24T09:43:36;97712.44;;;8.09;91.14
58018;BME280;43810;50.860;19.226;2022-12-24T09:46:05;97709.78;;;8.09;90.83
58018;BME280;43810;50.860;19.226;2022-12-24T09:48:37;97714.13;;;8.02;90.78
58018;BME280;43810;50.860;19.226;2022-12-24T09:51:07;97734.16;;;8.03;90.84
58018;BME280;43810;50.860;19.226;2022-12-24T09:53:56;97725.78;;;8.01;90.89
58018;BME280;43810;50.860;19.226;2022-12-24T09:56:26;97722.38;;;8.00;90.96
58018;BME280;43810;50.860;19.226;2022-12-24T09:59:04;97722.13;;;7.93;91.10
58018;BME280;43810;50.860;19.226;2022-12-24T10:01:33;97736.13;;;7.94;91.12
58018;BME280;43810;50.860;19.226;2022-12-24T10:04:03;97726.31;;;7.94;91.18
58018;BME280;43810;50.860;19.226;2022-12-24T10:12:35;97730.84;;;7.94;91.02
58018;BME280;43810;50.860;19.226;2022-12-24T10:28:33;97761.28;;;7.87;91.27
58018;BME280;43810;50.860;19.226;2022-12-24T10:31:06;97774.38;;;7.84;90.94
58018;BME280;43810;50.860;19.226;2022-12-24T10:33:42;97771.06;;;7.87;90.96
58018;BME280;43810;50.860;19.226;2022-12-24T10:36:16;97774.50;;;7.87;90.98
58018;BME280;43810;50.860;19.226;2022-12-24T10:38:44;97782.63;;;7.82;91.13
58018;BME280;43810;50.860;19.226;2022-12-24T10:41:11;97796.84;;;7.78;91.47
58018;BME280;43810;50.860;19.226;2022-12-24T10:43:38;97796.72;;;7.74;91.47
58018;BME280;43810;50.860;19.226;2022-12-24T10:48:47;97814.78;;;7.72;91.83
58018;BME280;43810;50.860;19.226;2022-12-24T10:54:00;97816.00;;;7.75;91.60
58018;BME280;43810;50.860;19.226;2022-12-24T10:56:31;97827.22;;;7.72;91.61
58018;BME280;43810;50.860;19.226;2022-12-24T10:59:04;97829.56;;;7.73;91.55
58018;BME280;43810;50.860;19.226;2022-12-24T11:01:46;97836.59;;;7.69;91.65
58018;BME280;43810;50.860;19.226;2022-12-24T11:04:17;97848.16;;;7.65;91.49
58018;BME280;43810;50.860;19.226;2022-12-24T11:06:58;97854.41;;;7.60;91.62
58018;BME280;43810;50.860;19.226;2022-12-24T11:09:28;97856.34;;;7.51;91.93
58018;BME280;43810;50.860;19.226;2022-12-24T11:11:56;97856.34;;;7.51;91.87
58018;BME280;43810;50.860;19.226;2022-12-24T11:14:23;97865.38;;;7.50;91.89
58018;BME280;43810;50.860;19.226;2022-12-24T11:16:53;97870.13;;;7.44;92.03
58018;BME280;43810;50.860;19.226;2022-12-24T11:19:32;97882.22;;;7.45;91.94
58018;BME280;43810;50.860;19.226;2022-12-24T11:22:05;97878.81;;;7.45;91.88
58018;BME280;43810;50.860;19.226;2022-12-24T11:24:37;97895.50;;;7.37;91.83
58018;BME280;43810;50.860;19.226;2022-12-24T11:27:45;97888.41;;;7.29;92.03
58018;BME280;43810;50.860;19.226;2022-12-24T11:32:42;97903.25;;;7.21;92.46
58018;BME280;43810;50.860;19.226;2022-12-24T11:35:28;97905.44;;;7.19;92.29
58018;BME280;43810;50.860;19.226;2022-12-24T11:40:41;97908.25;;;7.14;92.79
58018;BME280;43810;50.860;19.226;2022-12-24T11:43:14;97904.97;;;7.17;92.50
58018;BME280;43810;50.860;19.226;2022-12-24T11:48:30;97911.81;;;7.18;92.39
58018;BME280;43810;50.860;19.226;2022-12-24T11:51:01;97934.34;;;7.15;92.34
58018;BME280;43810;50.860;19.226;2022-12-24T11:53:33;97930.31;;;7.18;92.32
58018;BME280;43810;50.860;19.226;2022-12-24T11:56:12;97932.47;;;7.16;92.05
58018;BME280;43810;50.860;19.226;2022-12-24T11:58:45;97947.56;;;7.15;92.49
58018;BME280;43810;50.860;19.226;2022-12-24T12:04:09;97954.31;;;7.25;91.72
58018;BME280;43810;50.860;19.226;2022-12-24T12:09:33;97949.41;;;7.15;92.10
58018;BME280;43810;50.860;19.226;2022-12-24T12:12:08;97970.38;;;7.20;91.94
58018;BME280;43810;50.860;19.226;2022-12-24T12:14:42;97968.06;;;7.18;92.20
58018;BME280;43810;50.860;19.226;2022-12-24T12:19:57;97988.94;;;7.11;92.12
58018;BME280;43810;50.860;19.226;2022-12-24T12:25:16;97996.66;;;7.16;92.08
58018;BME280;43810;50.860;19.226;2022-12-24T12:27:46;97996.97;;;7.15;91.83
58018;BME280;43810;50.860;19.226;2022-12-24T12:30:19;97998.84;;;7.14;92.11
58018;BME280;43810;50.860;19.226;2022-12-24T12:35:40;98025.09;;;7.20;91.46
58018;BME280;43810;50.860;19.226;2022-12-24T12:38:17;98026.50;;;7.17;91.63
58018;BME280;43810;50.860;19.226;2022-12-24T12:40:57;98035.19;;;7.17;91.79
58018;BME280;43810;50.860;19.226;2022-12-24T12:49:14;98045.91;;;7.21;91.40
58018;BME280;43810;50.860;19.226;2022-12-24T12:51:54;98052.41;;;7.24;91.54
58018;BME280;43810;50.860;19.226;2022-12-24T12:57:12;98054.00;;;7.16;91.64
58018;BME280;43810;50.860;19.226;2022-12-24T12:59:57;98054.63;;;7.13;91.98
58018;BME280;43810;50.860;19.226;2022-12-24T13:08:17;98081.28;;;7.29;91.44
58018;BME280;43810;50.860;19.226;2022-12-24T13:11:03;98077.72;;;7.33;91.32
58018;BME280;43810;50.860;19.226;2022-12-24T13:13:43;98082.06;;;7.29;91.18
58018;BME280;43810;50.860;19.226;2022-12-24T13:16:37;98088.59;;;7.32;91.12
58018;BME280;43810;50.860;19.226;2022-12-24T13:22:13;98101.28;;;7.38;91.12
58018;BME280;43810;50.860;19.226;2022-12-24T13:24:47;98118.06;;;7.42;91.04
58018;BME280;43810;50.860;19.226;2022-12-24T13:27:19;98109.84;;;7.44;90.53
58018;BME280;43810;50.860;19.226;2022-12-24T13:34:52;98117.97;;;7.30;90.99
58018;BME280;43810;50.860;19.226;2022-12-24T13:47:54;98136.47;;;7.30;90.97
58018;BME280;43810;50.860;19.226;2022-12-24T13:50:23;98138.66;;;7.28;90.86
58018;BME280;43810;50.860;19.226;2022-12-24T13:52:53;98143.16;;;7.28;91.13
58018;BME280;43810;50.860;19.226;2022-12-24T13:55:19;98151.34;;;7.35;90.99
58018;BME280;43810;50.860;19.226;2022-12-24T13:57:55;98157.09;;;7.37;90.50
58018;BME280;43810;50.860;19.226;2022-12-24T14:00:36;98148.88;;;7.38;90.67
58018;BME280;43810;50.860;19.226;2022-12-24T14:08:34;98171.88;;;7.38;90.66
58018;BME280;43810;50.860;19.226;2022-12-24T14:11:15;98169.69;;;7.40;90.69
58018;BME280;43810;50.860;19.226;2022-12-24T14:19:24;98189.47;;;7.34;90.48
58018;BME280;43810;50.860;19.226;2022-12-24T14:22:18;98194.09;;;7.37;90.50
58018;BME280;43810;50.860;19.226;2022-12-24T14:25:20;98189.13;;;7.35;90.53
58018;BME280;43810;50.860;19.226;2022-12-24T14:27:57;98188.22;;;7.31;91.12
58018;BME280;43810;50.860;19.226;2022-12-24T14:30:29;98198.63;;;7.36;91.04
58018;BME280;43810;50.860;19.226;2022-12-24T14:32:56;98203.78;;;7.33;90.85
58018;BME280;43810;50.860;19.226;2022-12-24T14:35:27;98201.00;;;7.21;91.01
58018;BME280;43810;50.860;19.226;2022-12-24T14:38:20;98216.84;;;7.21;91.51
58018;BME280;43810;50.860;19.226;2022-12-24T14:41:07;98222.91;;;7.21;91.33
58018;BME280;43810;50.860;19.226;2022-12-24T14:46:52;98233.69;;;6.99;92.28
58018;BME280;43810;50.860;19.226;2022-12-24T14:54:37;98254.47;;;7.00;92.33
58018;BME280;43810;50.860;19.226;2022-12-24T15:02:41;98255.09;;;6.97;92.03
58018;BME280;43810;50.860;19.226;2022-12-24T15:05:24;98259.75;;;6.92;92.18
58018;BME280;43810;50.860;19.226;2022-12-24T15:07:59;98263.19;;;6.92;92.35
58018;BME280;43810;50.860;19.226;2022-12-24T15:10:32;98269.25;;;6.93;92.13
58018;BME280;43810;50.860;19.226;2022-12-24T15:13:04;98257.28;;;6.95;91.90
58018;BME280;43810;50.860;19.226;2022-12-24T15:15:32;98275.00;;;6.95;91.85
58018;BME280;43810;50.860;19.226;2022-12-24T15:17:59;98276.53;;;6.96;92.03
58018;BME280;43810;50.860;19.226;2022-12-24T15:20:27;98279.19;;;6.96;91.64
58018;BME280;43810;50.860;19.226;2022-12-24T15:22:55;98276.84;;;6.94;91.77
58018;BME280;43810;50.860;19.226;2022-12-24T15:25:28;98275.91;;;6.90;92.15